sensor_id;sensor_type;location;lat;lon;timestamp;P1;durP1;ratioP1;P2;durP2;ratioP2
45848;SDS011;31567;54.600;9.842;2022-12-11T00:01:58;25.10;;;15.55;;
45848;SDS011;31567;54.600;9.842;2022-12-11T00:05:39;19.45;;;12.30;;
45848;SDS011;31567;54.600;9.842;2022-12-11T00:09:19;23.20;;;14.82;;
45848;SDS011;31567;54.600;9.842;2022-12-11T00:12:59;24.02;;;15.32;;
45848;SDS011;31567;54.600;9.842;2022-12-11T00:16:38;21.10;;;13.23;;
45848;SDS011;31567;54.600;9.842;2022-12-11T00:20:18;20.73;;;13.38;;
45848;SDS011;31567;54.600;9.842;2022-12-11T00:23:58;24.77;;;13.95;;
45848;SDS011;31567;54.600;9.842;2022-12-11T00:27:38;21.58;;;13.45;;
45848;SDS011;31567;54.600;9.842;2022-12-11T00:31:17;23.20;;;13.70;;
45848;SDS011;31567;54.600;9.842;2022-12-11T00:34:58;19.50;;;12.90;;
45848;SDS011;31567;54.600;9.842;2022-12-11T00:38:37;21.52;;;13.07;;
45848;SDS011;31567;54.600;9.842;2022-12-11T00:42:17;21.88;;;13.52;;
45848;SDS011;31567;54.600;9.842;2022-12-11T00:45:56;26.08;;;14.80;;
45848;SDS011;31567;54.600;9.842;2022-12-11T00:49:36;23.60;;;14.85;;
45848;SDS011;31567;54.600;9.842;2022-12-11T00:53:15;25.88;;;14.27;;
45848;SDS011;31567;54.600;9.842;2022-12-11T00:56:55;24.40;;;13.95;;
45848;SDS011;31567;54.600;9.842;2022-12-11T01:00:34;24.40;;;14.57;;
45848;SDS011;31567;54.600;9.842;2022-12-11T01:04:14;25.42;;;14.70;;
45848;SDS011;31567;54.600;9.842;2022-12-11T01:07:54;25.58;;;15.77;;
45848;SDS011;31567;54.600;9.842;2022-12-11T01:11:33;26.88;;;15.75;;
45848;SDS011;31567;54.600;9.842;2022-12-11T01:15:13;25.83;;;14.77;;
45848;SDS011;31567;54.600;9.842;2022-12-11T01:18:53;26.52;;;16.52;;
45848;SDS011;31567;54.600;9.842;2022-12-11T01:22:32;27.13;;;16.35;;
45848;SDS011;31567;54.600;9.842;2022-12-11T01:26:13;27.45;;;15.80;;
45848;SDS011;31567;54.600;9.842;2022-12-11T01:29:53;24.63;;;15.50;;
45848;SDS011;31567;54.600;9.842;2022-12-11T01:33:32;25.70;;;15.45;;
45848;SDS011;31567;54.600;9.842;2022-12-11T01:37:12;32.50;;;17.02;;
45848;SDS011;31567;54.600;9.842;2022-12-11T01:40:51;24.95;;;16.02;;
45848;SDS011;31567;54.600;9.842;2022-12-11T01:48:13;23.42;;;13.77;;
45848;SDS011;31567;54.600;9.842;2022-12-11T01:51:57;22.17;;;13.40;;
45848;SDS011;31567;54.600;9.842;2022-12-11T01:55:41;27.33;;;16.95;;
45848;SDS011;31567;54.600;9.842;2022-12-11T01:59:23;30.33;;;16.77;;
45848;SDS011;31567;54.600;9.842;2022-12-11T02:03:05;31.05;;;17.45;;
45848;SDS011;31567;54.600;9.842;2022-12-11T02:06:46;26.75;;;15.80;;
45848;SDS011;31567;54.600;9.842;2022-12-11T02:10:30;25.15;;;15.13;;
45848;SDS011;31567;54.600;9.842;2022-12-11T02:18:30;31.73;;;19.67;;
45848;SDS011;31567;54.600;9.842;2022-12-11T02:30:10;31.42;;;18.75;;
45848;SDS011;31567;54.600;9.842;2022-12-11T02:37:41;33.42;;;18.67;;
45848;SDS011;31567;54.600;9.842;2022-12-11T02:41:23;35.20;;;17.63;;
45848;SDS011;31567;54.600;9.842;2022-12-11T02:45:04;32.88;;;18.60;;
45848;SDS011;31567;54.600;9.842;2022-12-11T02:48:47;29.30;;;17.02;;
45848;SDS011;31567;54.600;9.842;2022-12-11T02:52:29;28.58;;;17.80;;
45848;SDS011;31567;54.600;9.842;2022-12-11T02:56:12;29.65;;;17.83;;
45848;SDS011;31567;54.600;9.842;2022-12-11T02:59:56;28.25;;;16.80;;
45848;SDS011;31567;54.600;9.842;2022-12-11T03:03:36;26.20;;;16.60;;
45848;SDS011;31567;54.600;9.842;2022-12-11T03:07:26;27.77;;;16.20;;
45848;SDS011;31567;54.600;9.842;2022-12-11T03:11:10;25.52;;;15.75;;
45848;SDS011;31567;54.600;9.842;2022-12-11T03:14:50;27.20;;;15.30;;
45848;SDS011;31567;54.600;9.842;2022-12-11T03:18:33;24.02;;;15.43;;
45848;SDS011;31567;54.600;9.842;2022-12-11T03:22:25;23.85;;;14.18;;
45848;SDS011;31567;54.600;9.842;2022-12-11T03:26:14;25.50;;;15.43;;
45848;SDS011;31567;54.600;9.842;2022-12-11T03:29:58;29.27;;;17.48;;
45848;SDS011;31567;54.600;9.842;2022-12-11T03:33:43;28.95;;;17.05;;
45848;SDS011;31567;54.600;9.842;2022-12-11T03:37:25;25.70;;;14.85;;
45848;SDS011;31567;54.600;9.842;2022-12-11T03:41:09;28.10;;;16.23;;
45848;SDS011;31567;54.600;9.842;2022-12-11T03:44:51;30.75;;;17.05;;
45848;SDS011;31567;54.600;9.842;2022-12-11T03:48:35;26.90;;;15.40;;
45848;SDS011;31567;54.600;9.842;2022-12-11T03:52:16;28.13;;;17.02;;
45848;SDS011;31567;54.600;9.842;2022-12-11T03:55:56;29.20;;;16.15;;
45848;SDS011;31567;54.600;9.842;2022-12-11T03:59:38;26.33;;;15.48;;
45848;SDS011;31567;54.600;9.842;2022-12-11T04:03:18;28.45;;;16.88;;
45848;SDS011;31567;54.600;9.842;2022-12-11T04:06:57;27.17;;;15.23;;
45848;SDS011;31567;54.600;9.842;2022-12-11T04:10:37;28.73;;;15.32;;
45848;SDS011;31567;54.600;9.842;2022-12-11T04:14:17;31.20;;;16.05;;
45848;SDS011;31567;54.600;9.842;2022-12-11T04:18:16;28.10;;;16.27;;
45848;SDS011;31567;54.600;9.842;2022-12-11T04:22:14;27.92;;;15.43;;
45848;SDS011;31567;54.600;9.842;2022-12-11T04:26:15;27.23;;;16.30;;
45848;SDS011;31567;54.600;9.842;2022-12-11T04:29:56;25.65;;;15.80;;
45848;SDS011;31567;54.600;9.842;2022-12-11T04:33:36;29.30;;;17.02;;
45848;SDS011;31567;54.600;9.842;2022-12-11T04:37:15;29.65;;;16.90;;
45848;SDS011;31567;54.600;9.842;2022-12-11T04:40:58;28.58;;;17.08;;
45848;SDS011;31567;54.600;9.842;2022-12-11T04:44:39;27.05;;;15.90;;
45848;SDS011;31567;54.600;9.842;2022-12-11T04:48:18;28.20;;;16.85;;
45848;SDS011;31567;54.600;9.842;2022-12-11T04:51:58;26.40;;;15.60;;
45848;SDS011;31567;54.600;9.842;2022-12-11T04:55:37;26.00;;;15.35;;
45848;SDS011;31567;54.600;9.842;2022-12-11T04:59:17;26.75;;;14.98;;
45848;SDS011;31567;54.600;9.842;2022-12-11T05:02:57;26.17;;;14.50;;
45848;SDS011;31567;54.600;9.842;2022-12-11T05:06:36;25.17;;;14.48;;
45848;SDS011;31567;54.600;9.842;2022-12-11T05:10:16;27.75;;;15.55;;
45848;SDS011;31567;54.600;9.842;2022-12-11T05:13:55;27.75;;;16.50;;
45848;SDS011;31567;54.600;9.842;2022-12-11T05:17:35;28.67;;;15.38;;
45848;SDS011;31567;54.600;9.842;2022-12-11T05:21:15;25.98;;;15.10;;
45848;SDS011;31567;54.600;9.842;2022-12-11T05:24:54;30.02;;;15.95;;
45848;SDS011;31567;54.600;9.842;2022-12-11T05:28:35;27.50;;;16.67;;
45848;SDS011;31567;54.600;9.842;2022-12-11T05:32:16;25.02;;;13.70;;
45848;SDS011;31567;54.600;9.842;2022-12-11T05:35:55;23.38;;;13.98;;
45848;SDS011;31567;54.600;9.842;2022-12-11T05:39:35;30.33;;;16.85;;
45848;SDS011;31567;54.600;9.842;2022-12-11T05:43:15;26.73;;;15.98;;
45848;SDS011;31567;54.600;9.842;2022-12-11T05:46:55;26.02;;;15.80;;
45848;SDS011;31567;54.600;9.842;2022-12-11T05:50:34;25.10;;;14.13;;
45848;SDS011;31567;54.600;9.842;2022-12-11T05:54:14;25.77;;;15.48;;
45848;SDS011;31567;54.600;9.842;2022-12-11T05:57:54;26.05;;;14.80;;
45848;SDS011;31567;54.600;9.842;2022-12-11T06:01:34;28.65;;;16.80;;
45848;SDS011;31567;54.600;9.842;2022-12-11T06:05:16;26.17;;;16.60;;
45848;SDS011;31567;54.600;9.842;2022-12-11T06:08:57;26.17;;;15.57;;
45848;SDS011;31567;54.600;9.842;2022-12-11T06:12:37;29.50;;;16.55;;
45848;SDS011;31567;54.600;9.842;2022-12-11T06:16:17;28.85;;;15.70;;
45848;SDS011;31567;54.600;9.842;2022-12-11T06:19:57;24.27;;;15.00;;
45848;SDS011;31567;54.600;9.842;2022-12-11T06:23:37;26.73;;;16.33;;
45848;SDS011;31567;54.600;9.842;2022-12-11T06:27:17;30.25;;;16.75;;
45848;SDS011;31567;54.600;9.842;2022-12-11T06:30:58;28.55;;;16.85;;
45848;SDS011;31567;54.600;9.842;2022-12-11T06:34:37;28.80;;;16.75;;
45848;SDS011;31567;54.600;9.842;2022-12-11T06:38:17;30.30;;;16.58;;
45848;SDS011;31567;54.600;9.842;2022-12-11T06:41:57;29.92;;;16.40;;
45848;SDS011;31567;54.600;9.842;2022-12-11T06:45:36;28.67;;;16.67;;
45848;SDS011;31567;54.600;9.842;2022-12-11T06:49:16;26.88;;;15.45;;
45848;SDS011;31567;54.600;9.842;2022-12-11T06:52:55;28.50;;;16.42;;
45848;SDS011;31567;54.600;9.842;2022-12-11T06:56:35;28.70;;;16.67;;
45848;SDS011;31567;54.600;9.842;2022-12-11T07:00:15;26.10;;;15.50;;
45848;SDS011;31567;54.600;9.842;2022-12-11T07:03:55;25.35;;;15.25;;
45848;SDS011;31567;54.600;9.842;2022-12-11T07:07:36;27.83;;;16.80;;
45848;SDS011;31567;54.600;9.842;2022-12-11T07:11:16;32.15;;;17.13;;
45848;SDS011;31567;54.600;9.842;2022-12-11T07:14:57;34.50;;;19.13;;
45848;SDS011;31567;54.600;9.842;2022-12-11T07:18:37;31.10;;;17.55;;
45848;SDS011;31567;54.600;9.842;2022-12-11T07:22:18;26.95;;;16.10;;
45848;SDS011;31567;54.600;9.842;2022-12-11T07:25:57;27.35;;;15.70;;
45848;SDS011;31567;54.600;9.842;2022-12-11T07:29:37;31.40;;;17.70;;
45848;SDS011;31567;54.600;9.842;2022-12-11T07:33:16;33.35;;;17.65;;
45848;SDS011;31567;54.600;9.842;2022-12-11T07:36:56;27.48;;;15.95;;
45848;SDS011;31567;54.600;9.842;2022-12-11T07:40:36;24.65;;;15.25;;
45848;SDS011;31567;54.600;9.842;2022-12-11T07:44:15;29.50;;;17.65;;
45848;SDS011;31567;54.600;9.842;2022-12-11T07:47:55;30.17;;;16.92;;
45848;SDS011;31567;54.600;9.842;2022-12-11T07:51:35;27.30;;;15.98;;
45848;SDS011;31567;54.600;9.842;2022-12-11T07:55:15;25.40;;;14.80;;
45848;SDS011;31567;54.600;9.842;2022-12-11T07:58:57;24.33;;;14.70;;
45848;SDS011;31567;54.600;9.842;2022-12-11T08:02:38;29.52;;;16.50;;
45848;SDS011;31567;54.600;9.842;2022-12-11T08:06:17;29.90;;;17.83;;
45848;SDS011;31567;54.600;9.842;2022-12-11T08:09:59;31.38;;;17.63;;
45848;SDS011;31567;54.600;9.842;2022-12-11T08:13:39;29.92;;;16.38;;
45848;SDS011;31567;54.600;9.842;2022-12-11T08:17:20;27.40;;;15.95;;
45848;SDS011;31567;54.600;9.842;2022-12-11T08:21:06;27.80;;;16.98;;
45848;SDS011;31567;54.600;9.842;2022-12-11T08:24:46;30.20;;;17.33;;
45848;SDS011;31567;54.600;9.842;2022-12-11T08:28:25;28.02;;;15.82;;
45848;SDS011;31567;54.600;9.842;2022-12-11T08:32:05;27.73;;;16.25;;
45848;SDS011;31567;54.600;9.842;2022-12-11T08:35:45;29.73;;;17.23;;
45848;SDS011;31567;54.600;9.842;2022-12-11T08:39:24;30.40;;;18.10;;
45848;SDS011;31567;54.600;9.842;2022-12-11T08:43:04;29.48;;;16.52;;
45848;SDS011;31567;54.600;9.842;2022-12-11T08:46:44;33.58;;;19.42;;
45848;SDS011;31567;54.600;9.842;2022-12-11T08:50:23;33.67;;;19.40;;
45848;SDS011;31567;54.600;9.842;2022-12-11T08:54:03;31.38;;;17.83;;
45848;SDS011;31567;54.600;9.842;2022-12-11T08:57:43;28.70;;;17.45;;
45848;SDS011;31567;54.600;9.842;2022-12-11T09:01:23;32.08;;;18.70;;
45848;SDS011;31567;54.600;9.842;2022-12-11T09:05:04;27.67;;;17.35;;
45848;SDS011;31567;54.600;9.842;2022-12-11T09:08:46;28.20;;;17.15;;
45848;SDS011;31567;54.600;9.842;2022-12-11T09:12:27;29.08;;;17.67;;
45848;SDS011;31567;54.600;9.842;2022-12-11T09:16:07;28.85;;;17.95;;
45848;SDS011;31567;54.600;9.842;2022-12-11T09:19:49;27.35;;;17.05;;
45848;SDS011;31567;54.600;9.842;2022-12-11T09:23:28;29.77;;;17.38;;
45848;SDS011;31567;54.600;9.842;2022-12-11T09:27:08;30.50;;;18.05;;
45848;SDS011;31567;54.600;9.842;2022-12-11T09:30:48;29.33;;;17.83;;
45848;SDS011;31567;54.600;9.842;2022-12-11T09:34:27;30.58;;;17.65;;
45848;SDS011;31567;54.600;9.842;2022-12-11T09:38:07;29.80;;;17.90;;
45848;SDS011;31567;54.600;9.842;2022-12-11T09:45:33;26.50;;;15.50;;
45848;SDS011;31567;54.600;9.842;2022-12-11T09:49:19;26.30;;;16.45;;
45848;SDS011;31567;54.600;9.842;2022-12-11T10:01:10;27.83;;;16.15;;
45848;SDS011;31567;54.600;9.842;2022-12-11T10:16:34;26.05;;;16.25;;
45848;SDS011;31567;54.600;9.842;2022-12-11T10:20:34;28.35;;;17.10;;
45848;SDS011;31567;54.600;9.842;2022-12-11T10:31:56;24.75;;;15.60;;
45848;SDS011;31567;54.600;9.842;2022-12-11T10:35:41;24.58;;;15.10;;
45848;SDS011;31567;54.600;9.842;2022-12-11T10:39:30;22.65;;;13.82;;
45848;SDS011;31567;54.600;9.842;2022-12-11T10:43:09;23.73;;;14.27;;
45848;SDS011;31567;54.600;9.842;2022-12-11T10:47:32;23.90;;;14.52;;
45848;SDS011;31567;54.600;9.842;2022-12-11T10:50:54;25.13;;;14.98;;
45848;SDS011;31567;54.600;9.842;2022-12-11T10:54:37;23.88;;;14.23;;
45848;SDS011;31567;54.600;9.842;2022-12-11T10:58:22;24.30;;;15.32;;
45848;SDS011;31567;54.600;9.842;2022-12-11T11:02:04;20.90;;;13.30;;
45848;SDS011;31567;54.600;9.842;2022-12-11T11:05:45;20.00;;;13.45;;
45848;SDS011;31567;54.600;9.842;2022-12-11T11:09:29;25.55;;;14.73;;
45848;SDS011;31567;54.600;9.842;2022-12-11T11:13:12;24.17;;;15.20;;
45848;SDS011;31567;54.600;9.842;2022-12-11T11:16:54;23.75;;;13.85;;
45848;SDS011;31567;54.600;9.842;2022-12-11T11:20:35;22.13;;;14.18;;
45848;SDS011;31567;54.600;9.842;2022-12-11T11:24:23;19.70;;;13.10;;
45848;SDS011;31567;54.600;9.842;2022-12-11T11:28:06;23.13;;;13.40;;
45848;SDS011;31567;54.600;9.842;2022-12-11T11:32:02;22.10;;;13.63;;
45848;SDS011;31567;54.600;9.842;2022-12-11T11:35:58;19.92;;;13.15;;
45848;SDS011;31567;54.600;9.842;2022-12-11T11:39:40;21.05;;;13.18;;
45848;SDS011;31567;54.600;9.842;2022-12-11T11:47:36;22.73;;;12.88;;
45848;SDS011;31567;54.600;9.842;2022-12-11T11:51:31;20.15;;;13.82;;
45848;SDS011;31567;54.600;9.842;2022-12-11T11:59:19;21.92;;;12.85;;
45848;SDS011;31567;54.600;9.842;2022-12-11T12:03:10;21.45;;;13.40;;
45848;SDS011;31567;54.600;9.842;2022-12-11T12:11:00;20.98;;;12.60;;
45848;SDS011;31567;54.600;9.842;2022-12-11T12:15:12;22.60;;;12.65;;
45848;SDS011;31567;54.600;9.842;2022-12-11T12:19:10;18.35;;;12.52;;
45848;SDS011;31567;54.600;9.842;2022-12-11T12:26:52;17.02;;;11.70;;
45848;SDS011;31567;54.600;9.842;2022-12-11T12:30:39;19.33;;;12.93;;
45848;SDS011;31567;54.600;9.842;2022-12-11T12:42:23;20.92;;;12.73;;
45848;SDS011;31567;54.600;9.842;2022-12-11T12:50:23;21.90;;;13.48;;
45848;SDS011;31567;54.600;9.842;2022-12-11T12:54:04;21.60;;;13.73;;
45848;SDS011;31567;54.600;9.842;2022-12-11T13:01:27;18.95;;;12.85;;
45848;SDS011;31567;54.600;9.842;2022-12-11T13:05:18;18.50;;;12.95;;
45848;SDS011;31567;54.600;9.842;2022-12-11T13:12:49;21.10;;;15.13;;
45848;SDS011;31567;54.600;9.842;2022-12-11T13:16:38;18.77;;;13.30;;
45848;SDS011;31567;54.600;9.842;2022-12-11T13:20:20;22.65;;;15.48;;
45848;SDS011;31567;54.600;9.842;2022-12-11T13:27:51;24.25;;;15.23;;
45848;SDS011;31567;54.600;9.842;2022-12-11T13:31:31;22.35;;;14.50;;
45848;SDS011;31567;54.600;9.842;2022-12-11T13:35:14;22.13;;;15.15;;
45848;SDS011;31567;54.600;9.842;2022-12-11T13:39:15;21.90;;;15.40;;
45848;SDS011;31567;54.600;9.842;2022-12-11T13:42:58;23.27;;;14.93;;
45848;SDS011;31567;54.600;9.842;2022-12-11T13:46:41;21.42;;;14.90;;
45848;SDS011;31567;54.600;9.842;2022-12-11T13:50:27;24.33;;;15.07;;
45848;SDS011;31567;54.600;9.842;2022-12-11T13:54:13;20.05;;;14.63;;
45848;SDS011;31567;54.600;9.842;2022-12-11T13:57:54;21.25;;;14.23;;
45848;SDS011;31567;54.600;9.842;2022-12-11T14:01:34;20.15;;;14.90;;
45848;SDS011;31567;54.600;9.842;2022-12-11T14:05:14;19.60;;;13.45;;
45848;SDS011;31567;54.600;9.842;2022-12-11T14:08:55;19.52;;;13.98;;
45848;SDS011;31567;54.600;9.842;2022-12-11T14:12:37;19.95;;;14.82;;
45848;SDS011;31567;54.600;9.842;2022-12-11T14:16:21;21.05;;;14.30;;
45848;SDS011;31567;54.600;9.842;2022-12-11T14:20:03;19.67;;;14.60;;
45848;SDS011;31567;54.600;9.842;2022-12-11T14:23:50;20.17;;;14.43;;
45848;SDS011;31567;54.600;9.842;2022-12-11T14:27:31;20.05;;;14.38;;
45848;SDS011;31567;54.600;9.842;2022-12-11T14:31:12;21.60;;;14.98;;
45848;SDS011;31567;54.600;9.842;2022-12-11T14:34:56;22.02;;;14.73;;
45848;SDS011;31567;54.600;9.842;2022-12-11T14:39:12;21.92;;;15.93;;
45848;SDS011;31567;54.600;9.842;2022-12-11T14:43:34;21.13;;;15.05;;
45848;SDS011;31567;54.600;9.842;2022-12-11T14:47:14;20.63;;;14.93;;
45848;SDS011;31567;54.600;9.842;2022-12-11T14:50:58;21.98;;;15.25;;
45848;SDS011;31567;54.600;9.842;2022-12-11T14:54:42;22.45;;;15.43;;
45848;SDS011;31567;54.600;9.842;2022-12-11T14:58:25;21.48;;;15.32;;
45848;SDS011;31567;54.600;9.842;2022-12-11T15:10:20;21.67;;;15.20;;
45848;SDS011;31567;54.600;9.842;2022-12-11T15:14:08;23.55;;;16.55;;
45848;SDS011;31567;54.600;9.842;2022-12-11T15:17:50;22.73;;;15.43;;
45848;SDS011;31567;54.600;9.842;2022-12-11T15:21:31;22.90;;;15.35;;
45848;SDS011;31567;54.600;9.842;2022-12-11T15:25:18;23.02;;;15.32;;
45848;SDS011;31567;54.600;9.842;2022-12-11T15:29:01;23.05;;;16.52;;
45848;SDS011;31567;54.600;9.842;2022-12-11T15:33:16;25.13;;;16.40;;
45848;SDS011;31567;54.600;9.842;2022-12-11T15:36:57;21.20;;;15.20;;
45848;SDS011;31567;54.600;9.842;2022-12-11T15:40:37;24.60;;;16.23;;
45848;SDS011;31567;54.600;9.842;2022-12-11T15:44:18;23.73;;;15.65;;
45848;SDS011;31567;54.600;9.842;2022-12-11T15:48:00;24.80;;;16.83;;
45848;SDS011;31567;54.600;9.842;2022-12-11T15:51:39;23.27;;;15.43;;
45848;SDS011;31567;54.600;9.842;2022-12-11T15:55:20;23.27;;;16.05;;
45848;SDS011;31567;54.600;9.842;2022-12-11T15:59:02;23.23;;;16.35;;
45848;SDS011;31567;54.600;9.842;2022-12-11T16:02:42;23.77;;;15.38;;
45848;SDS011;31567;54.600;9.842;2022-12-11T16:06:22;24.95;;;16.60;;
45848;SDS011;31567;54.600;9.842;2022-12-11T16:10:02;26.67;;;17.83;;
45848;SDS011;31567;54.600;9.842;2022-12-11T16:13:43;22.58;;;15.85;;
45848;SDS011;31567;54.600;9.842;2022-12-11T16:17:22;24.08;;;15.85;;
45848;SDS011;31567;54.600;9.842;2022-12-11T16:21:03;26.33;;;17.25;;
45848;SDS011;31567;54.600;9.842;2022-12-11T16:24:44;26.42;;;16.90;;
45848;SDS011;31567;54.600;9.842;2022-12-11T16:28:23;28.35;;;18.45;;
45848;SDS011;31567;54.600;9.842;2022-12-11T16:32:03;31.40;;;20.27;;
45848;SDS011;31567;54.600;9.842;2022-12-11T16:35:45;29.77;;;18.15;;
45848;SDS011;31567;54.600;9.842;2022-12-11T16:39:25;28.33;;;16.75;;
45848;SDS011;31567;54.600;9.842;2022-12-11T16:43:05;26.42;;;17.70;;
45848;SDS011;31567;54.600;9.842;2022-12-11T16:46:44;28.52;;;18.75;;
45848;SDS011;31567;54.600;9.842;2022-12-11T16:50:24;33.08;;;18.38;;
45848;SDS011;31567;54.600;9.842;2022-12-11T16:54:04;28.30;;;18.73;;
45848;SDS011;31567;54.600;9.842;2022-12-11T16:57:43;28.42;;;19.27;;
45848;SDS011;31567;54.600;9.842;2022-12-11T17:01:23;29.90;;;18.85;;
45848;SDS011;31567;54.600;9.842;2022-12-11T17:05:02;25.77;;;17.35;;
45848;SDS011;31567;54.600;9.842;2022-12-11T17:08:42;30.48;;;18.90;;
45848;SDS011;31567;54.600;9.842;2022-12-11T17:12:22;30.17;;;18.15;;
45848;SDS011;31567;54.600;9.842;2022-12-11T17:16:06;31.13;;;18.70;;
45848;SDS011;31567;54.600;9.842;2022-12-11T17:19:47;30.05;;;17.70;;
45848;SDS011;31567;54.600;9.842;2022-12-11T17:23:26;29.67;;;19.05;;
45848;SDS011;31567;54.600;9.842;2022-12-11T17:27:06;31.88;;;19.25;;
45848;SDS011;31567;54.600;9.842;2022-12-11T17:30:45;28.77;;;19.08;;
45848;SDS011;31567;54.600;9.842;2022-12-11T17:34:27;27.98;;;18.98;;
45848;SDS011;31567;54.600;9.842;2022-12-11T17:38:07;30.95;;;18.65;;
45848;SDS011;31567;54.600;9.842;2022-12-11T17:41:47;31.10;;;19.27;;
45848;SDS011;31567;54.600;9.842;2022-12-11T17:45:26;31.58;;;19.23;;
45848;SDS011;31567;54.600;9.842;2022-12-11T17:49:06;32.30;;;19.02;;
45848;SDS011;31567;54.600;9.842;2022-12-11T17:52:46;30.23;;;19.33;;
45848;SDS011;31567;54.600;9.842;2022-12-11T17:56:25;32.97;;;19.45;;
45848;SDS011;31567;54.600;9.842;2022-12-11T18:00:05;29.17;;;18.90;;
45848;SDS011;31567;54.600;9.842;2022-12-11T18:03:45;27.90;;;18.25;;
45848;SDS011;31567;54.600;9.842;2022-12-11T18:07:25;32.80;;;18.45;;
45848;SDS011;31567;54.600;9.842;2022-12-11T18:11:12;32.40;;;18.35;;
45848;SDS011;31567;54.600;9.842;2022-12-11T18:14:53;31.02;;;18.95;;
45848;SDS011;31567;54.600;9.842;2022-12-11T18:18:36;30.83;;;18.00;;
45848;SDS011;31567;54.600;9.842;2022-12-11T18:22:16;32.50;;;19.45;;
45848;SDS011;31567;54.600;9.842;2022-12-11T18:25:56;29.13;;;17.30;;
45848;SDS011;31567;54.600;9.842;2022-12-11T18:29:36;33.42;;;19.52;;
45848;SDS011;31567;54.600;9.842;2022-12-11T18:33:16;30.98;;;17.92;;
45848;SDS011;31567;54.600;9.842;2022-12-11T18:36:55;35.70;;;20.73;;
45848;SDS011;31567;54.600;9.842;2022-12-11T18:40:36;37.25;;;20.27;;
45848;SDS011;31567;54.600;9.842;2022-12-11T18:44:16;32.80;;;18.65;;
45848;SDS011;31567;54.600;9.842;2022-12-11T18:48:00;32.22;;;19.40;;
45848;SDS011;31567;54.600;9.842;2022-12-11T18:51:40;33.33;;;19.63;;
45848;SDS011;31567;54.600;9.842;2022-12-11T18:55:20;35.97;;;20.33;;
45848;SDS011;31567;54.600;9.842;2022-12-11T18:58:59;36.97;;;21.98;;
45848;SDS011;31567;54.600;9.842;2022-12-11T19:02:39;38.00;;;21.58;;
45848;SDS011;31567;54.600;9.842;2022-12-11T19:06:20;43.03;;;23.63;;
45848;SDS011;31567;54.600;9.842;2022-12-11T19:10:02;39.63;;;22.42;;
45848;SDS011;31567;54.600;9.842;2022-12-11T19:13:43;38.63;;;22.27;;
45848;SDS011;31567;54.600;9.842;2022-12-11T19:17:23;41.80;;;23.67;;
45848;SDS011;31567;54.600;9.842;2022-12-11T19:21:07;39.60;;;23.27;;
45848;SDS011;31567;54.600;9.842;2022-12-11T19:24:47;33.35;;;20.98;;
45848;SDS011;31567;54.600;9.842;2022-12-11T19:28:27;38.88;;;22.90;;
45848;SDS011;31567;54.600;9.842;2022-12-11T19:32:06;39.65;;;22.30;;
45848;SDS011;31567;54.600;9.842;2022-12-11T19:35:46;37.65;;;22.70;;
45848;SDS011;31567;54.600;9.842;2022-12-11T19:39:26;35.15;;;21.73;;
45848;SDS011;31567;54.600;9.842;2022-12-11T19:43:05;38.75;;;22.92;;
45848;SDS011;31567;54.600;9.842;2022-12-11T19:46:45;37.33;;;22.27;;
45848;SDS011;31567;54.600;9.842;2022-12-11T19:50:24;38.25;;;23.25;;
45848;SDS011;31567;54.600;9.842;2022-12-11T19:54:05;40.00;;;24.25;;
45848;SDS011;31567;54.600;9.842;2022-12-11T19:57:46;38.03;;;23.35;;
45848;SDS011;31567;54.600;9.842;2022-12-11T20:01:27;38.95;;;22.85;;
45848;SDS011;31567;54.600;9.842;2022-12-11T20:05:09;37.58;;;22.55;;
45848;SDS011;31567;54.600;9.842;2022-12-11T20:08:49;36.97;;;22.13;;
45848;SDS011;31567;54.600;9.842;2022-12-11T20:12:28;43.17;;;24.83;;
45848;SDS011;31567;54.600;9.842;2022-12-11T20:16:09;39.05;;;22.83;;
45848;SDS011;31567;54.600;9.842;2022-12-11T20:19:50;40.20;;;22.92;;
45848;SDS011;31567;54.600;9.842;2022-12-11T20:23:29;38.10;;;23.15;;
45848;SDS011;31567;54.600;9.842;2022-12-11T20:27:09;37.28;;;22.95;;
45848;SDS011;31567;54.600;9.842;2022-12-11T20:30:50;38.75;;;23.10;;
45848;SDS011;31567;54.600;9.842;2022-12-11T20:34:29;36.20;;;22.35;;
45848;SDS011;31567;54.600;9.842;2022-12-11T20:38:09;39.13;;;23.20;;
45848;SDS011;31567;54.600;9.842;2022-12-11T20:41:49;40.40;;;23.58;;
45848;SDS011;31567;54.600;9.842;2022-12-11T20:45:28;42.58;;;24.25;;
45848;SDS011;31567;54.600;9.842;2022-12-11T20:49:08;41.30;;;23.77;;
45848;SDS011;31567;54.600;9.842;2022-12-11T20:52:50;38.63;;;23.35;;
45848;SDS011;31567;54.600;9.842;2022-12-11T20:56:30;37.70;;;22.52;;
45848;SDS011;31567;54.600;9.842;2022-12-11T21:00:10;39.55;;;21.67;;
45848;SDS011;31567;54.600;9.842;2022-12-11T21:03:50;41.88;;;22.77;;
45848;SDS011;31567;54.600;9.842;2022-12-11T21:07:31;33.92;;;22.35;;
45848;SDS011;31567;54.600;9.842;2022-12-11T21:11:10;39.22;;;22.42;;
45848;SDS011;31567;54.600;9.842;2022-12-11T21:14:50;38.03;;;22.75;;
45848;SDS011;31567;54.600;9.842;2022-12-11T21:18:30;36.72;;;22.10;;
45848;SDS011;31567;54.600;9.842;2022-12-11T21:22:09;39.08;;;23.75;;
45848;SDS011;31567;54.600;9.842;2022-12-11T21:25:49;38.90;;;23.25;;
45848;SDS011;31567;54.600;9.842;2022-12-11T21:29:29;39.90;;;21.85;;
45848;SDS011;31567;54.600;9.842;2022-12-11T21:33:09;37.83;;;23.42;;
45848;SDS011;31567;54.600;9.842;2022-12-11T21:36:49;41.30;;;25.52;;
45848;SDS011;31567;54.600;9.842;2022-12-11T21:40:32;41.47;;;25.35;;
45848;SDS011;31567;54.600;9.842;2022-12-11T21:44:12;39.78;;;25.25;;
45848;SDS011;31567;54.600;9.842;2022-12-11T21:47:51;44.10;;;27.02;;
45848;SDS011;31567;54.600;9.842;2022-12-11T21:51:32;46.78;;;27.15;;
45848;SDS011;31567;54.600;9.842;2022-12-11T21:55:14;45.65;;;27.90;;
45848;SDS011;31567;54.600;9.842;2022-12-11T21:58:56;44.83;;;25.25;;
45848;SDS011;31567;54.600;9.842;2022-12-11T22:02:35;41.83;;;25.42;;
45848;SDS011;31567;54.600;9.842;2022-12-11T22:06:15;44.22;;;26.45;;
45848;SDS011;31567;54.600;9.842;2022-12-11T22:09:55;42.30;;;27.02;;
45848;SDS011;31567;54.600;9.842;2022-12-11T22:13:35;45.20;;;26.70;;
45848;SDS011;31567;54.600;9.842;2022-12-11T22:17:15;48.03;;;28.13;;
45848;SDS011;31567;54.600;9.842;2022-12-11T22:20:56;45.90;;;27.77;;
45848;SDS011;31567;54.600;9.842;2022-12-11T22:24:37;47.80;;;28.67;;
45848;SDS011;31567;54.600;9.842;2022-12-11T22:28:17;46.42;;;27.95;;
45848;SDS011;31567;54.600;9.842;2022-12-11T22:31:56;45.28;;;26.58;;
45848;SDS011;31567;54.600;9.842;2022-12-11T22:35:36;47.50;;;26.75;;
45848;SDS011;31567;54.600;9.842;2022-12-11T22:39:16;48.53;;;27.15;;
45848;SDS011;31567;54.600;9.842;2022-12-11T22:42:55;47.10;;;27.63;;
45848;SDS011;31567;54.600;9.842;2022-12-11T22:46:35;46.75;;;26.52;;
45848;SDS011;31567;54.600;9.842;2022-12-11T22:50:15;45.30;;;27.83;;
45848;SDS011;31567;54.600;9.842;2022-12-11T22:53:55;44.22;;;26.75;;
45848;SDS011;31567;54.600;9.842;2022-12-11T22:57:35;42.90;;;27.10;;
45848;SDS011;31567;54.600;9.842;2022-12-11T23:01:18;44.33;;;26.10;;
45848;SDS011;31567;54.600;9.842;2022-12-11T23:04:59;44.15;;;26.63;;
45848;SDS011;31567;54.600;9.842;2022-12-11T23:08:39;45.67;;;26.35;;
45848;SDS011;31567;54.600;9.842;2022-12-11T23:12:19;47.45;;;28.33;;
45848;SDS011;31567;54.600;9.842;2022-12-11T23:15:58;51.60;;;29.42;;